Time;durP1;ratioP1;P1;durP2;ratioP2;P2;SDS_P1;SDS_P2;PMS_P1;PMS_P2;Temp;Humidity;BMP_temperature;BMP_pressure;BME280_temperature;BME280_humidity;BME280_pressure;Samples;Min_cycle;Max_cycle;Signal;HPM_P1;HPM_P2
2023/12/20 00:02:24;;;;;;;12.05;10.10;;;4.90;99.90;;;;;;5051149;28;20297;-67
2023/12/20 00:04:51;;;;;;;10.77;9.73;;;5.00;99.90;;;;;;5052481;28;20213;-66
2023/12/20 00:07:17;;;;;;;13.18;11.48;;;5.00;99.90;;;;;;5058725;22;20752;-63
2023/12/20 00:09:44;;;;;;;11.70;10.63;;;5.10;99.90;;;;;;5039613;28;20213;-63
2023/12/20 00:12:12;;;;;;;13.25;10.30;;;5.10;99.90;;;;;;5036605;28;20207;-64
2023/12/20 00:14:39;;;;;;;14.55;12.00;;;5.10;99.90;;;;;;5043886;28;20660;-64
2023/12/20 00:17:06;;;;;;;15.07;10.90;;;5.20;99.90;;;;;;5045822;28;20230;-63
2023/12/20 00:19:33;;;;;;;14.30;10.52;;;5.20;99.90;;;;;;5036063;28;20294;-64
2023/12/20 00:22:00;;;;;;;9.98;8.32;;;5.20;99.90;;;;;;5044836;28;20224;-64
2023/12/20 00:24:27;;;;;;;14.05;9.45;;;5.30;99.90;;;;;;5041468;28;20210;-63
2023/12/20 00:26:54;;;;;;;9.55;7.05;;;5.30;99.90;;;;;;5041964;28;20231;-64
2023/12/20 00:29:22;;;;;;;9.88;8.88;;;5.30;99.90;;;;;;5040902;28;20579;-64
2023/12/20 00:31:49;;;;;;;9.07;7.80;;;5.30;99.90;;;;;;5045637;28;20213;-64
2023/12/20 00:34:16;;;;;;;8.10;7.47;;;5.30;99.90;;;;;;5040884;28;20210;-63
2023/12/20 00:36:42;;;;;;;8.70;7.97;;;5.40;99.90;;;;;;5036647;28;20309;-64
2023/12/20 00:39:09;;;;;;;8.25;6.68;;;5.40;99.90;;;;;;5034486;28;20227;-64
2023/12/20 00:41:36;;;;;;;8.48;3.90;;;5.40;99.90;;;;;;5032364;28;20206;-64
2023/12/20 00:44:04;;;;;;;5.57;4.50;;;5.40;99.90;;;;;;5040069;28;20218;-64
2023/12/20 00:46:32;;;;;;;4.57;4.18;;;5.40;99.90;;;;;;5034729;28;20249;-64
2023/12/20 00:48:59;;;;;;;5.55;4.30;;;5.40;99.90;;;;;;5045481;28;20198;-64
2023/12/20 00:51:25;;;;;;;4.15;3.85;;;5.50;99.90;;;;;;5041938;28;20213;-64
2023/12/20 00:53:54;;;;;;;3.75;2.30;;;5.50;99.90;;;;;;5037935;28;20203;-64
2023/12/20 00:56:21;;;;;;;6.43;3.97;;;5.50;99.90;;;;;;5031973;28;20227;-64
2023/12/20 00:58:48;;;;;;;3.08;2.88;;;5.50;99.90;;;;;;5042275;28;20237;-64
2023/12/20 01:01:16;;;;;;;2.55;2.35;;;5.50;99.90;;;;;;5040538;28;20292;-63
2023/12/20 01:03:44;;;;;;;2.72;2.58;;;5.50;99.90;;;;;;5042871;28;20292;-64
2023/12/20 01:06:11;;;;;;;4.05;2.22;;;5.50;99.90;;;;;;5041822;28;20249;-64
2023/12/20 01:08:38;;;;;;;3.30;2.17;;;5.40;99.90;;;;;;5040381;28;20207;-64
2023/12/20 01:11:06;;;;;;;5.70;3.63;;;5.40;99.90;;;;;;5034681;28;20213;-64
2023/12/20 01:13:32;;;;;;;2.10;1.80;;;5.40;99.90;;;;;;5041558;28;20206;-64
2023/12/20 01:15:59;;;;;;;2.08;1.98;;;5.40;99.90;;;;;;5043098;28;20222;-64
2023/12/20 01:18:26;;;;;;;2.22;2.05;;;5.40;99.90;;;;;;5038462;28;20240;-64
2023/12/20 01:20:54;;;;;;;2.17;1.95;;;5.40;99.90;;;;;;5037558;28;20297;-64
2023/12/20 01:23:21;;;;;;;2.40;2.20;;;5.40;99.90;;;;;;5045687;28;20580;-64
2023/12/20 01:25:48;;;;;;;1.70;1.60;;;5.30;99.90;;;;;;5038084;28;20227;-65
2023/12/20 01:28:15;;;;;;;1.55;1.30;;;5.40;99.90;;;;;;5033003;28;20618;-64
2023/12/20 01:30:42;;;;;;;1.77;1.45;;;5.30;99.90;;;;;;5042240;28;20207;-64
2023/12/20 01:33:09;;;;;;;1.77;1.67;;;5.30;99.90;;;;;;5043781;28;20209;-64
2023/12/20 01:35:36;;;;;;;1.60;1.50;;;5.30;99.90;;;;;;5036246;28;20249;-64
2023/12/20 01:38:04;;;;;;;1.42;1.33;;;5.30;99.90;;;;;;5041418;28;20222;-64
2023/12/20 01:40:31;;;;;;;1.70;1.60;;;5.30;99.90;;;;;;5040756;28;20298;-64
2023/12/20 01:43:02;;;;;;;1.70;1.58;;;5.20;99.90;;;;;;5030851;28;20286;-64
2023/12/20 01:45:29;;;;;;;1.30;1.20;;;5.20;99.90;;;;;;5030159;28;20231;-64
2023/12/20 01:47:57;;;;;;;2.13;2.03;;;5.20;99.90;;;;;;5031324;28;20195;-64
2023/12/20 01:50:24;;;;;;;1.77;1.20;;;5.20;99.90;;;;;;5032157;28;20650;-64
2023/12/20 01:52:52;;;;;;;0.80;0.80;;;5.10;99.90;;;;;;5032307;28;20760;-64
2023/12/20 01:55:21;;;;;;;1.10;1.10;;;5.10;99.90;;;;;;5031702;28;20203;-64
2023/12/20 01:57:48;;;;;;;0.90;0.90;;;5.10;99.90;;;;;;5031483;28;20219;-64
2023/12/20 02:00:16;;;;;;;0.82;0.82;;;5.10;99.90;;;;;;5031851;28;20749;-64
2023/12/20 02:02:44;;;;;;;1.27;1.17;;;5.10;99.90;;;;;;5031853;28;20688;-64
2023/12/20 02:05:11;;;;;;;1.67;1.58;;;;;;;;;;5031641;28;20301;-64
2023/12/20 02:07:38;;;;;;;1.63;1.10;;;5.10;99.90;;;;;;5031616;28;20305;-64
2023/12/20 02:10:05;;;;;;;0.70;0.70;;;5.20;99.90;;;;;;5030781;28;20302;-64
2023/12/20 02:12:34;;;;;;;1.08;1.02;;;5.10;99.90;;;;;;5031550;28;20286;-64
2023/12/20 02:15:00;;;;;;;1.52;0.88;;;5.20;99.90;;;;;;5031807;28;20769;-64
2023/12/20 02:17:28;;;;;;;0.82;0.82;;;5.10;99.90;;;;;;5031449;28;20237;-64
2023/12/20 02:19:55;;;;;;;0.70;0.70;;;5.20;99.90;;;;;;5031408;28;20226;-64
2023/12/20 02:22:23;;;;;;;0.70;0.70;;;5.20;99.90;;;;;;5031623;28;20746;-64
2023/12/20 02:24:50;;;;;;;1.05;0.80;;;5.20;99.90;;;;;;5030987;28;20297;-64
2023/12/20 02:27:20;;;;;;;0.95;0.95;;;5.20;99.90;;;;;;5031289;28;20603;-64
2023/12/20 02:29:48;;;;;;;0.82;0.80;;;5.20;99.90;;;;;;5031534;28;20299;-64
2023/12/20 02:32:16;;;;;;;1.00;1.00;;;5.20;99.90;;;;;;5031691;28;20588;-64
2023/12/20 02:34:43;;;;;;;0.60;0.60;;;5.20;99.90;;;;;;5031647;28;20300;-64
2023/12/20 02:37:10;;;;;;;0.70;0.70;;;5.10;99.90;;;;;;5031297;28;20230;-64
2023/12/20 02:39:38;;;;;;;1.20;1.08;;;5.20;99.90;;;;;;5031166;28;20233;-63
2023/12/20 02:42:05;;;;;;;1.00;1.00;;;5.10;99.90;;;;;;5031661;28;20618;-64
2023/12/20 02:44:32;;;;;;;1.05;0.98;;;5.10;99.90;;;;;;5031569;28;20217;-64
2023/12/20 02:46:58;;;;;;;2.75;0.90;;;5.10;99.90;;;;;;5031129;28;20226;-64
2023/12/20 02:49:25;;;;;;;1.00;1.00;;;5.20;99.90;;;;;;5031240;28;20294;-64
2023/12/20 02:51:52;;;;;;;0.90;0.90;;;5.20;99.90;;;;;;5031392;28;20203;-64
2023/12/20 02:54:19;;;;;;;0.80;0.80;;;5.20;99.90;;;;;;5033632;28;20207;-64
2023/12/20 02:56:47;;;;;;;1.58;1.42;;;5.10;99.90;;;;;;5035077;28;20265;-64
2023/12/20 02:59:14;;;;;;;1.00;1.00;;;5.10;99.90;;;;;;5035130;28;20237;-64
2023/12/20 03:01:44;;;;;;;0.65;0.65;;;5.10;99.90;;;;;;5035359;28;20237;-64
2023/12/20 03:04:11;;;;;;;1.05;0.95;;;5.10;99.90;;;;;;5035148;28;20301;-64
2023/12/20 03:06:38;;;;;;;3.97;1.40;;;5.10;99.90;;;;;;5034628;28;20749;-64
2023/12/20 03:09:05;;;;;;;2.05;1.10;;;5.10;99.90;;;;;;5035068;28;20238;-64
2023/12/20 03:11:32;;;;;;;0.93;0.93;;;5.10;99.90;;;;;;5034925;28;20213;-64
2023/12/20 03:14:00;;;;;;;0.90;0.90;;;5.20;99.90;;;;;;5035153;28;20596;-64
2023/12/20 03:16:27;;;;;;;0.80;0.80;;;5.10;99.90;;;;;;5034628;28;20223;-64
2023/12/20 03:18:54;;;;;;;1.35;1.25;;;5.10;99.90;;;;;;5034660;28;20226;-64
2023/12/20 03:21:20;;;;;;;1.52;1.52;;;5.00;99.90;;;;;;5034385;28;20298;-64
2023/12/20 03:23:47;;;;;;;0.70;0.70;;;5.00;99.90;;;;;;5034840;28;20207;-64
2023/12/20 03:26:14;;;;;;;0.73;0.73;;;5.00;99.90;;;;;;5034577;28;20317;-64
2023/12/20 03:28:41;;;;;;;0.85;0.85;;;5.00;99.90;;;;;;5034892;28;20203;-64
2023/12/20 03:31:10;;;;;;;0.88;0.88;;;5.00;99.90;;;;;;5035123;28;20398;-64
2023/12/20 03:33:37;;;;;;;1.23;1.17;;;5.00;99.90;;;;;;5034625;28;20732;-64
2023/12/20 03:36:04;;;;;;;1.65;0.88;;;5.00;99.90;;;;;;5034464;28;20226;-64
2023/12/20 03:38:31;;;;;;;0.80;0.80;;;5.00;99.90;;;;;;5034264;28;20234;-64
2023/12/20 03:40:58;;;;;;;0.80;0.80;;;5.00;99.90;;;;;;5034659;28;20277;-64
2023/12/20 03:43:25;;;;;;;1.00;1.00;;;5.00;99.90;;;;;;5034599;28;20215;-64
2023/12/20 03:45:51;;;;;;;1.00;0.90;;;5.00;99.90;;;;;;5033445;28;20594;-64
2023/12/20 03:48:20;;;;;;;1.02;0.93;;;5.00;99.90;;;;;;5028902;28;20219;-64
2023/12/20 03:50:47;;;;;;;0.60;0.60;;;5.00;99.90;;;;;;5034170;28;20632;-64
2023/12/20 03:53:13;;;;;;;0.70;0.60;;;5.00;99.90;;;;;;5034083;28;20214;-64
2023/12/20 03:55:40;;;;;;;0.75;0.75;;;5.00;99.90;;;;;;5034067;28;20231;-64
2023/12/20 03:58:07;;;;;;;0.70;0.70;;;4.90;99.90;;;;;;5034129;28;20206;-64
2023/12/20 04:00:34;;;;;;;0.70;0.70;;;5.00;99.90;;;;;;5034269;28;20236;-64
2023/12/20 04:03:01;;;;;;;1.20;1.10;;;5.00;99.90;;;;;;5034570;28;20214;-64
2023/12/20 04:05:29;;;;;;;0.55;0.55;;;5.00;99.90;;;;;;5033350;28;20238;-64
2023/12/20 04:07:56;;;;;;;0.85;0.73;;;5.00;99.90;;;;;;5033872;28;20206;-64
2023/12/20 04:10:23;;;;;;;0.70;0.70;;;5.00;99.90;;;;;;5033987;28;20665;-64
2023/12/20 04:12:49;;;;;;;1.83;1.30;;;5.00;99.90;;;;;;5034141;28;20211;-64
2023/12/20 04:15:16;;;;;;;1.10;1.00;;;5.00;99.90;;;;;;5033617;28;20770;-64
2023/12/20 04:17:43;;;;;;;1.13;0.80;;;5.00;99.90;;;;;;5033772;28;20273;-64
2023/12/20 04:20:10;;;;;;;0.80;0.80;;;5.00;99.90;;;;;;5033751;28;20237;-64
2023/12/20 04:22:39;;;;;;;1.00;1.00;;;5.10;99.90;;;;;;5033767;28;20742;-64
2023/12/20 04:25:06;;;;;;;0.70;0.70;;;5.00;99.90;;;;;;5033747;28;20213;-64
2023/12/20 04:27:33;;;;;;;0.65;0.65;;;5.00;99.90;;;;;;5033669;28;20211;-64
2023/12/20 04:29:59;;;;;;;1.20;0.98;;;5.00;99.90;;;;;;5033227;28;20577;-64
2023/12/20 04:32:26;;;;;;;0.60;0.60;;;5.00;99.90;;;;;;5033852;28;20209;-64
2023/12/20 04:34:53;;;;;;;0.82;0.82;;;5.00;99.90;;;;;;5033620;28;20294;-64
2023/12/20 04:37:20;;;;;;;1.08;1.08;;;5.00;99.90;;;;;;5033151;28;20226;-64
2023/12/20 04:39:48;;;;;;;1.45;1.10;;;5.00;99.90;;;;;;5033175;28;20230;-63
2023/12/20 04:42:15;;;;;;;0.88;0.88;;;5.10;99.90;;;;;;5032207;28;20298;-64
2023/12/20 04:44:43;;;;;;;1.02;0.98;;;5.10;99.90;;;;;;5033069;28;20206;-64
2023/12/20 04:47:10;;;;;;;1.20;1.20;;;5.00;99.90;;;;;;5032906;28;20253;-64
2023/12/20 04:49:37;;;;;;;1.40;1.30;;;5.10;99.90;;;;;;5033332;28;20290;-64
2023/12/20 04:52:04;;;;;;;1.10;1.02;;;5.10;99.90;;;;;;5033328;28;20203;-64
2023/12/20 04:54:31;;;;;;;1.23;1.20;;;5.10;99.90;;;;;;5033103;28;20640;-64
2023/12/20 04:56:59;;;;;;;1.10;1.10;;;5.10;99.90;;;;;;5033046;28;20678;-64
2023/12/20 04:59:26;;;;;;;1.35;1.35;;;5.00;99.90;;;;;;5032751;28;20321;-64
2023/12/20 05:01:53;;;;;;;1.33;1.27;;;5.10;99.90;;;;;;5032981;28;20210;-64
2023/12/20 05:04:20;;;;;;;1.60;1.50;;;5.10;99.90;;;;;;5033137;28;20207;-64
2023/12/20 05:06:47;;;;;;;1.50;1.40;;;5.10;99.90;;;;;;5032756;28;20242;-64
2023/12/20 05:09:14;;;;;;;1.13;1.13;;;5.10;99.90;;;;;;5032701;28;20231;-64
2023/12/20 05:11:40;;;;;;;1.58;1.48;;;5.10;99.90;;;;;;5033059;28;20213;-63
2023/12/20 05:14:08;;;;;;;1.60;1.50;;;5.10;99.90;;;;;;5032688;28;20213;-64
2023/12/20 05:16:35;;;;;;;1.30;1.20;;;5.10;99.90;;;;;;5031894;28;20237;-64
2023/12/20 05:19:06;;;;;;;1.42;1.27;;;5.10;99.90;;;;;;5032651;28;20237;-64
2023/12/20 05:21:33;;;;;;;2.30;1.90;;;5.10;99.90;;;;;;5032853;28;20268;-64
2023/12/20 05:24:00;;;;;;;2.65;1.90;;;5.10;99.90;;;;;;5032774;28;20250;-64
2023/12/20 05:26:27;;;;;;;1.98;1.88;;;5.10;99.90;;;;;;5032363;28;20238;-64
2023/12/20 05:28:54;;;;;;;1.77;1.67;;;5.10;99.90;;;;;;5032282;28;20835;-64
2023/12/20 05:31:22;;;;;;;1.80;1.70;;;5.10;99.90;;;;;;5032771;28;20207;-64
2023/12/20 05:33:49;;;;;;;3.05;2.17;;;5.20;99.90;;;;;;5032527;28;20217;-64
2023/12/20 05:36:16;;;;;;;2.50;2.40;;;5.10;99.90;;;;;;5032776;28;20242;-64
2023/12/20 05:38:43;;;;;;;2.50;2.38;;;5.10;99.90;;;;;;5032564;28;20217;-64
2023/12/20 05:41:10;;;;;;;2.50;2.40;;;5.20;99.90;;;;;;5032225;28;20211;-64
2023/12/20 05:43:37;;;;;;;2.00;1.90;;;5.20;99.90;;;;;;5032534;28;20203;-64
2023/12/20 05:46:04;;;;;;;2.50;2.28;;;5.20;99.90;;;;;;5032098;28;20223;-64
2023/12/20 05:48:32;;;;;;;3.25;2.42;;;5.20;99.90;;;;;;5032049;28;20293;-64
2023/12/20 05:50:59;;;;;;;2.65;2.45;;;5.20;99.90;;;;;;5032178;28;20203;-64
2023/12/20 05:53:26;;;;;;;2.38;2.22;;;5.20;99.90;;;;;;5032200;28;20297;-64
2023/12/20 05:55:52;;;;;;;2.20;2.10;;;5.20;99.90;;;;;;5031867;28;20230;-64
2023/12/20 05:58:19;;;;;;;2.08;1.98;;;5.20;99.90;;;;;;5031892;28;20218;-64
2023/12/20 06:00:46;;;;;;;1.95;1.85;;;5.20;99.90;;;;;;5032088;28;20600;-64
2023/12/20 06:03:13;;;;;;;2.00;1.90;;;5.20;99.90;;;;;;5032013;28;20210;-64
2023/12/20 06:05:41;;;;;;;2.75;2.65;;;5.20;99.90;;;;;;5057088;22;20612;-70
2023/12/20 06:08:08;;;;;;;2.20;2.05;;;5.20;99.90;;;;;;5051102;28;20210;-70
2023/12/20 06:10:35;;;;;;;2.40;2.20;;;5.30;99.90;;;;;;5051708;28;20205;-69
2023/12/20 06:13:01;;;;;;;2.20;2.10;;;5.30;99.90;;;;;;5051903;28;20296;-69
2023/12/20 06:15:28;;;;;;;2.20;2.10;;;5.30;99.90;;;;;;5051645;28;20649;-70
2023/12/20 06:17:55;;;;;;;2.70;2.53;;;5.30;99.90;;;;;;5051589;28;20206;-70
2023/12/20 06:20:22;;;;;;;20.88;17.48;;;5.30;99.90;;;;;;5051619;28;20596;-70
2023/12/20 06:22:50;;;;;;;33.00;25.58;;;5.30;99.90;;;;;;5051488;28;20202;-69
2023/12/20 06:25:17;;;;;;;14.02;12.48;;;5.30;99.90;;;;;;5051275;28;20237;-70
2023/12/20 06:27:44;;;;;;;3.88;3.55;;;5.30;99.90;;;;;;5051065;28;20305;-69
2023/12/20 06:30:11;;;;;;;5.88;5.40;;;5.30;99.90;;;;;;5051434;28;20229;-69
2023/12/20 06:32:39;;;;;;;3.95;3.65;;;5.30;99.90;;;;;;5051390;28;20626;-69
2023/12/20 06:35:07;;;;;;;5.22;4.82;;;5.30;99.90;;;;;;5051385;28;20317;-69
2023/12/20 06:37:34;;;;;;;6.03;5.53;;;5.30;99.90;;;;;;5051281;28;20230;-70
2023/12/20 06:40:02;;;;;;;9.27;8.48;;;5.30;99.90;;;;;;5051286;28;20313;-70
2023/12/20 06:42:29;;;;;;;3.67;3.42;;;5.20;99.90;;;;;;5051470;28;20210;-69
2023/12/20 06:44:55;;;;;;;4.80;4.35;;;5.20;99.90;;;;;;5051324;28;20673;-70
2023/12/20 06:47:22;;;;;;;5.88;5.47;;;5.20;99.90;;;;;;5051325;28;20232;-70
2023/12/20 06:49:49;;;;;;;4.07;3.78;;;5.20;99.90;;;;;;5051339;28;20579;-69
2023/12/20 06:52:16;;;;;;;4.40;3.97;;;5.20;99.90;;;;;;5051503;28;20206;-70
2023/12/20 06:54:43;;;;;;;5.28;4.88;;;5.20;99.90;;;;;;5051343;28;20673;-70
2023/12/20 06:57:11;;;;;;;5.28;4.78;;;5.20;99.90;;;;;;5051224;28;20257;-69
2023/12/20 06:59:40;;;;;;;4.75;4.45;;;5.20;99.90;;;;;;5050939;28;20230;-70
2023/12/20 07:02:07;;;;;;;5.03;4.57;;;5.30;99.90;;;;;;5051372;28;20577;-70
2023/12/20 07:04:34;;;;;;;5.13;4.05;;;5.30;99.90;;;;;;5051114;28;20213;-69
2023/12/20 07:07:01;;;;;;;4.80;4.35;;;5.30;99.90;;;;;;5051194;28;20683;-70
2023/12/20 07:09:28;;;;;;;5.05;4.50;;;5.40;99.90;;;;;;5051084;28;20309;-70
2023/12/20 07:11:54;;;;;;;5.05;4.65;;;5.40;99.90;;;;;;5051202;28;20656;-70
2023/12/20 07:14:23;;;;;;;4.95;4.55;;;5.40;99.90;;;;;;5051035;28;20210;-70
2023/12/20 07:16:49;;;;;;;6.07;5.55;;;5.50;99.90;;;;;;5051184;28;20228;-70
2023/12/20 07:19:16;;;;;;;7.03;5.45;;;5.50;99.90;;;;;;5050742;28;20206;-69
2023/12/20 07:21:43;;;;;;;6.22;5.63;;;5.50;99.90;;;;;;5051170;28;20205;-70
2023/12/20 07:24:10;;;;;;;15.23;11.82;;;5.50;99.90;;;;;;5051068;28;20206;-70
2023/12/20 07:26:37;;;;;;;7.07;6.38;;;5.50;99.90;;;;;;5050643;28;20600;-70
2023/12/20 07:29:04;;;;;;;7.80;7.20;;;5.50;99.90;;;;;;5049120;28;20206;-69
2023/12/20 07:31:32;;;;;;;6.22;5.65;;;5.50;99.90;;;;;;5050617;28;20290;-70
2023/12/20 07:33:59;;;;;;;6.85;6.15;;;5.40;99.90;;;;;;5049337;28;20202;-70
2023/12/20 07:36:26;;;;;;;6.82;6.05;;;5.40;99.90;;;;;;5048680;28;20728;-70
2023/12/20 07:38:53;;;;;;;6.43;5.78;;;5.40;99.90;;;;;;5048678;28;20209;-69
2023/12/20 07:41:21;;;;;;;5.82;5.32;;;5.30;99.90;;;;;;5053388;28;20222;-70
2023/12/20 07:43:48;;;;;;;7.10;6.40;;;5.30;99.90;;;;;;5053297;28;20206;-70
2023/12/20 07:46:14;;;;;;;8.30;7.60;;;5.30;99.90;;;;;;5054218;28;20253;-70
2023/12/20 07:48:42;;;;;;;9.15;7.70;;;5.20;99.90;;;;;;5053206;28;20297;-70
2023/12/20 07:51:09;;;;;;;7.00;5.53;;;5.10;99.90;;;;;;5054211;28;20198;-70
2023/12/20 07:53:37;;;;;;;7.35;6.50;;;5.10;99.90;;;;;;5053550;28;20230;-70
2023/12/20 07:56:14;;;;;;;9.50;8.70;;;5.00;99.90;;;;;;5053727;28;20234;-70
2023/12/20 07:58:40;;;;;;;7.07;6.20;;;4.90;99.90;;;;;;5053248;28;20202;-70
2023/12/20 08:01:07;;;;;;;6.75;5.00;;;4.90;99.90;;;;;;5053943;28;20226;-69
2023/12/20 08:03:34;;;;;;;4.35;4.05;;;4.80;99.90;;;;;;5053246;28;20206;-70
2023/12/20 08:06:04;;;;;;;4.90;4.47;;;4.80;99.90;;;;;;5053534;28;20321;-69
2023/12/20 08:08:31;;;;;;;6.78;4.18;;;4.70;99.90;;;;;;5052952;28;20210;-70
2023/12/20 08:11:00;;;;;;;8.75;5.13;;;4.60;99.90;;;;;;5053939;28;20226;-70
2023/12/20 08:13:27;;;;;;;4.07;3.67;;;4.60;99.90;;;;;;5052550;28;20213;-70
2023/12/20 08:15:55;;;;;;;4.32;3.80;;;4.60;99.90;;;;;;5053424;28;20226;-70
2023/12/20 08:18:22;;;;;;;5.70;4.40;;;4.60;99.90;;;;;;5052585;28;20301;-69
2023/12/20 08:20:49;;;;;;;4.13;3.58;;;4.60;99.90;;;;;;5053335;28;20697;-70
2023/12/20 08:23:17;;;;;;;7.00;3.83;;;4.60;99.90;;;;;;5052758;28;20297;-70
2023/12/20 08:25:44;;;;;;;7.00;3.38;;;4.60;99.90;;;;;;5053567;28;20209;-70
2023/12/20 08:28:11;;;;;;;4.07;3.67;;;4.60;99.90;;;;;;5052505;28;20202;-69
2023/12/20 08:30:38;;;;;;;4.80;3.00;;;4.60;99.90;;;;;;5053403;28;20481;-70
2023/12/20 08:33:07;;;;;;;3.95;3.47;;;4.60;99.90;;;;;;5052834;28;20677;-70
2023/12/20 08:35:34;;;;;;;4.20;3.08;;;4.60;99.90;;;;;;5050184;28;20203;-69
2023/12/20 08:38:01;;;;;;;4.13;3.40;;;4.60;99.90;;;;;;5051759;28;20213;-70
2023/12/20 08:40:29;;;;;;;3.55;2.97;;;4.60;99.90;;;;;;5052710;28;20226;-70
2023/12/20 08:42:56;;;;;;;7.30;3.10;;;4.60;99.90;;;;;;5051837;28;20583;-70
2023/12/20 08:45:22;;;;;;;10.40;3.60;;;4.60;99.90;;;;;;5052126;28;20213;-70
2023/12/20 08:47:49;;;;;;;9.63;4.05;;;4.70;99.90;;;;;;5050436;28;20226;-70
2023/12/20 08:50:16;;;;;;;3.33;3.10;;;4.70;99.90;;;;;;5056407;28;20224;-70
2023/12/20 08:52:43;;;;;;;2.90;2.70;;;4.80;99.90;;;;;;5056209;28;20212;-70
2023/12/20 08:55:10;;;;;;;2.75;2.55;;;4.80;99.90;;;;;;5051973;28;20294;-70
2023/12/20 08:57:38;;;;;;;6.30;2.95;;;4.90;99.90;;;;;;5052519;28;20225;-70
2023/12/20 09:00:07;;;;;;;9.18;3.55;;;4.90;99.90;;;;;;5052123;28;20660;-70
2023/12/20 09:02:35;;;;;;;9.93;3.05;;;4.90;99.90;;;;;;5052614;28;20221;-69
2023/12/20 09:05:03;;;;;;;5.20;3.30;;;4.90;99.90;;;;;;5055368;28;20233;-70
2023/12/20 09:07:30;;;;;;;3.17;2.67;;;4.90;99.90;;;;;;5070166;28;20237;-69
2023/12/20 09:09:57;;;;;;;7.40;3.22;;;4.90;99.90;;;;;;5052605;28;20209;-70
2023/12/20 09:12:24;;;;;;;4.10;3.40;;;4.90;99.90;;;;;;5055845;28;20233;-69
2023/12/20 09:14:53;;;;;;;4.88;2.50;;;4.90;99.90;;;;;;5058690;28;20704;-71
2023/12/20 09:17:20;;;;;;;2.83;2.58;;;5.00;99.90;;;;;;5051430;28;20711;-71
2023/12/20 09:19:47;;;;;;;5.30;3.40;;;5.00;99.90;;;;;;5051700;28;20700;-70
2023/12/20 09:22:14;;;;;;;5.75;3.45;;;5.10;99.90;;;;;;5052023;28;20228;-70
2023/12/20 09:24:41;;;;;;;3.40;2.30;;;5.10;99.90;;;;;;5051552;28;20300;-70
2023/12/20 09:27:07;;;;;;;3.45;2.35;;;5.20;99.90;;;;;;5051621;28;20224;-71
2023/12/20 09:29:34;;;;;;;3.20;2.47;;;5.20;99.90;;;;;;5051702;28;20206;-70
2023/12/20 09:32:03;;;;;;;4.38;2.42;;;5.30;99.90;;;;;;5051903;28;20672;-70
2023/12/20 09:34:29;;;;;;;2.85;2.65;;;5.40;99.90;;;;;;5059682;28;20217;-71
2023/12/20 09:36:56;;;;;;;2.33;2.13;;;5.40;99.90;;;;;;5051499;28;20226;-69
2023/12/20 09:39:23;;;;;;;6.53;2.50;;;5.50;99.90;;;;;;5058186;28;20313;-71
2023/12/20 09:42:00;;;;;;;3.67;2.75;;;5.60;99.90;;;;;;5051797;28;20234;-70
2023/12/20 09:44:27;;;;;;;5.45;2.42;;;5.60;99.90;;;;;;5057096;28;20296;-70
2023/12/20 09:46:56;;;;;;;7.57;4.10;;;5.70;99.90;;;;;;5053560;28;20232;-71
2023/12/20 09:49:26;;;;;;;3.67;2.40;;;5.70;99.90;;;;;;5051100;28;20206;-71
2023/12/20 09:51:54;;;;;;;3.90;2.40;;;5.70;99.90;;;;;;5060495;28;20304;-71
2023/12/20 09:54:22;;;;;;;5.22;2.30;;;5.70;99.90;;;;;;5050503;28;20238;-70
2023/12/20 09:56:49;;;;;;;2.80;1.85;;;5.70;99.90;;;;;;5050928;28;20237;-70
2023/12/20 09:59:16;;;;;;;4.97;3.47;;;5.80;99.90;;;;;;5050697;28;20222;-71
2023/12/20 10:01:44;;;;;;;6.75;2.05;;;5.80;99.90;;;;;;5051252;28;20237;-71
2023/12/20 10:04:13;;;;;;;4.90;2.03;;;5.80;99.90;;;;;;5038430;28;20298;-71
2023/12/20 10:06:42;;;;;;;5.88;2.05;;;5.80;99.90;;;;;;5050956;28;20295;-71
2023/12/20 10:09:10;;;;;;;3.88;2.38;;;5.80;99.90;;;;;;5051000;28;20208;-71
2023/12/20 10:11:38;;;;;;;3.22;1.90;;;5.90;99.90;;;;;;5051132;28;20212;-70
2023/12/20 10:14:05;;;;;;;4.38;2.67;;;6.00;99.90;;;;;;5051574;28;20202;-71
2023/12/20 10:16:33;;;;;;;4.15;2.85;;;6.00;99.90;;;;;;5050915;28;20230;-70
2023/12/20 10:19:00;;;;;;;2.15;1.95;;;6.00;99.90;;;;;;5050824;28;20210;-71
2023/12/20 10:21:28;;;;;;;2.40;1.70;;;6.10;99.90;;;;;;5051031;28;20739;-70
2023/12/20 10:23:56;;;;;;;3.38;1.75;;;6.20;99.90;;;;;;5051282;28;20593;-71
2023/12/20 10:26:24;;;;;;;2.08;1.63;;;6.20;99.90;;;;;;5050721;28;20699;-72
2023/12/20 10:28:52;;;;;;;3.67;2.42;;;6.30;99.90;;;;;;5051256;28;20207;-71
2023/12/20 10:31:30;;;;;;;4.72;2.30;;;6.30;99.90;;;;;;5051029;28;20959;-70
2023/12/20 10:33:58;;;;;;;1.83;1.73;;;6.40;99.90;;;;;;5051323;28;20209;-71
2023/12/20 10:36:26;;;;;;;3.70;1.88;;;6.40;99.90;;;;;;5050873;28;20229;-70
2023/12/20 10:38:57;;;;;;;2.53;2.10;;;6.50;99.90;;;;;;5050994;28;20695;-70
2023/12/20 10:41:27;;;;;;;1.65;1.55;;;6.50;99.90;;;;;;5051223;28;20226;-71
2023/12/20 10:43:57;;;;;;;3.35;2.60;;;6.50;99.90;;;;;;5054066;28;20252;-71
2023/12/20 10:46:26;;;;;;;4.40;1.70;;;6.60;99.90;;;;;;5050928;28;20236;-71
2023/12/20 10:48:54;;;;;;;3.40;1.98;;;6.50;99.90;;;;;;5050763;28;20241;-72
2023/12/20 10:51:22;;;;;;;4.00;1.77;;;6.60;99.90;;;;;;5047250;28;20198;-72
2023/12/20 10:53:50;;;;;;;8.18;2.22;;;6.60;99.90;;;;;;5048583;28;20217;-73
2023/12/20 10:56:19;;;;;;;7.13;2.53;;;6.60;99.90;;;;;;5049926;28;20734;-72
2023/12/20 10:58:47;;;;;;;5.00;2.50;;;6.60;99.90;;;;;;5050548;28;20214;-71
2023/12/20 11:01:15;;;;;;;4.90;1.73;;;6.70;99.90;;;;;;5050608;28;20225;-71
2023/12/20 11:03:48;;;;;;;3.83;2.25;;;6.60;99.90;;;;;;5050632;28;20213;-71
2023/12/20 11:06:23;;;;;;;4.35;1.80;;;6.60;99.90;;;;;;5050175;28;20751;-71
2023/12/20 11:08:56;;;;;;;7.55;3.13;;;6.60;99.90;;;;;;5050579;28;20301;-71
2023/12/20 11:11:30;;;;;;;2.17;1.98;;;6.70;99.90;;;;;;5050674;28;20209;-71
2023/12/20 11:14:02;;;;;;;3.67;2.50;;;6.70;99.90;;;;;;5050656;28;20339;-72
2023/12/20 11:16:29;;;;;;;2.22;2.08;;;6.70;99.90;;;;;;5053672;28;20226;-72
2023/12/20 11:18:56;;;;;;;5.20;3.15;;;6.60;99.90;;;;;;5053919;28;20213;-71
2023/12/20 11:21:22;;;;;;;3.63;2.45;;;6.50;99.90;;;;;;5054358;28;20597;-71
2023/12/20 11:23:49;;;;;;;4.13;2.80;;;6.40;99.90;;;;;;5054730;28;20217;-71
2023/12/20 11:26:17;;;;;;;2.47;2.30;;;6.40;99.90;;;;;;5049434;28;20701;-72
2023/12/20 11:28:45;;;;;;;4.22;3.10;;;6.40;99.90;;;;;;5046524;28;20239;-72
2023/12/20 11:31:17;;;;;;;3.10;2.72;;;6.30;99.90;;;;;;5053837;28;20199;-71
2023/12/20 11:33:44;;;;;;;2.55;2.40;;;6.30;99.90;;;;;;5053855;28;20241;-72
2023/12/20 11:36:15;;;;;;;3.30;2.22;;;6.30;99.90;;;;;;5051863;28;20226;-74
2023/12/20 11:38:56;;;;;;;4.50;2.17;;;6.30;99.90;;;;;;5053363;28;20623;-74
2023/12/20 11:41:24;;;;;;;1.98;1.88;;;6.30;99.90;;;;;;5052342;28;20751;-73
2023/12/20 11:43:54;;;;;;;4.10;2.67;;;6.30;99.90;;;;;;5052657;28;20572;-73
2023/12/20 11:46:22;;;;;;;6.38;3.58;;;6.30;99.90;;;;;;5053061;28;20316;-71
2023/12/20 11:48:49;;;;;;;3.28;3.08;;;6.20;99.90;;;;;;5053029;28;20285;-72
2023/12/20 11:51:16;;;;;;;3.15;2.63;;;6.20;99.90;;;;;;5053149;28;20205;-72
2023/12/20 11:53:43;;;;;;;3.13;2.10;;;6.30;99.90;;;;;;5052686;28;20206;-72
2023/12/20 11:56:11;;;;;;;3.33;2.80;;;6.30;99.90;;;;;;5052563;28;20671;-70
2023/12/20 11:58:38;;;;;;;3.00;2.20;;;6.20;99.90;;;;;;5048366;28;20207;-73
2023/12/20 12:01:07;;;;;;;8.85;3.75;;;6.30;99.90;;;;;;5052593;28;20313;-73
2023/12/20 12:03:34;;;;;;;4.30;2.60;;;6.20;99.90;;;;;;5053060;28;20211;-73
2023/12/20 12:06:02;;;;;;;5.43;3.45;;;6.30;99.90;;;;;;5074957;22;20230;-63
2023/12/20 12:08:29;;;;;;;3.95;2.28;;;6.30;99.90;;;;;;5031831;28;20211;-65
2023/12/20 12:10:55;;;;;;;2.80;2.25;;;6.30;99.90;;;;;;5027987;28;20214;-65
2023/12/20 12:13:22;;;;;;;4.28;3.47;;;6.30;99.90;;;;;;5031703;28;20298;-65
2023/12/20 12:15:50;;;;;;;4.47;2.75;;;6.40;99.90;;;;;;5038430;28;20297;-63
2023/12/20 12:18:19;;;;;;;6.82;2.15;;;6.40;99.90;;;;;;5035077;28;20207;-65
2023/12/20 12:20:45;;;;;;;6.20;2.33;;;6.50;99.90;;;;;;5040157;28;20253;-65
2023/12/20 12:23:12;;;;;;;3.92;2.45;;;6.60;99.90;;;;;;5038565;28;20227;-64
2023/12/20 12:25:39;;;;;;;4.20;2.10;;;6.70;99.90;;;;;;5034480;28;20207;-65
2023/12/20 12:28:07;;;;;;;6.75;2.83;;;6.70;99.90;;;;;;5036867;28;20250;-65
2023/12/20 12:30:33;;;;;;;5.00;1.70;;;6.70;99.90;;;;;;5037298;28;20207;-64
2023/12/20 12:33:00;;;;;;;7.03;2.25;;;6.80;99.90;;;;;;5041660;28;20272;-64
2023/12/20 12:35:28;;;;;;;4.85;1.70;;;6.80;99.90;;;;;;5036315;28;20209;-65
2023/12/20 12:37:55;;;;;;;3.00;2.60;;;6.80;99.90;;;;;;5033008;28;20230;-65
2023/12/20 12:40:22;;;;;;;4.45;2.38;;;6.80;99.90;;;;;;5036517;28;20394;-65
2023/12/20 12:42:49;;;;;;;3.42;3.13;;;6.80;99.90;;;;;;5036500;28;20232;-64
2023/12/20 12:45:16;;;;;;;2.88;2.20;;;6.80;99.90;;;;;;5035222;28;20584;-64
2023/12/20 12:47:43;;;;;;;2.50;1.90;;;6.80;99.90;;;;;;5034856;28;20662;-65
2023/12/20 12:50:10;;;;;;;3.58;2.50;;;6.70;99.90;;;;;;5032644;28;20624;-63
2023/12/20 12:52:38;;;;;;;15.07;2.97;;;6.60;99.90;;;;;;5037440;28;20199;-65
2023/12/20 12:55:06;;;;;;;2.88;2.50;;;6.60;99.90;;;;;;5032254;28;20238;-65
2023/12/20 12:57:33;;;;;;;2.58;2.30;;;6.60;99.90;;;;;;5035898;28;20313;-65